createdAt,value
2022-10-18T00:00:46.241Z,100082.53
2022-10-18T00:03:12.713Z,100088.13
2022-10-18T00:05:39.304Z,100072.25
2022-10-18T00:08:05.854Z,100080.00
2022-10-18T00:10:32.365Z,100074.75
2022-10-18T00:12:58.844Z,100067.84
2022-10-18T00:15:25.491Z,100050.03
2022-10-18T00:17:52.034Z,100057.00
2022-10-18T00:20:18.530Z,100054.06
2022-10-18T00:22:45.044Z,100044.19
2022-10-18T00:25:11.798Z,100050.50
2022-10-18T00:27:38.317Z,100045.00
2022-10-18T00:30:05.515Z,100059.22
2022-10-18T00:32:37.060Z,100052.13
2022-10-18T00:35:04.314Z,100060.91
2022-10-18T00:37:30.861Z,100055.88
2022-10-18T00:39:57.348Z,100051.47
2022-10-18T00:42:28.087Z,100045.84
2022-10-18T00:45:17.953Z,100054.00
2022-10-18T00:47:47.449Z,100056.72
2022-10-18T00:50:14.130Z,100042.50
2022-10-18T00:52:45.179Z,100036.03
2022-10-18T00:55:11.878Z,100037.91
2022-10-18T00:57:40.072Z,100040.00
2022-10-18T01:00:09.766Z,100037.91
2022-10-18T01:02:37.786Z,100033.06
2022-10-18T01:05:05.033Z,100034.72
2022-10-18T01:07:59.479Z,100032.84
2022-10-18T01:10:32.916Z,100034.72
2022-10-18T01:13:11.561Z,100041.19
2022-10-18T01:15:50.029Z,100043.06
2022-10-18T01:18:25.148Z,100045.34
2022-10-18T01:21:16.582Z,100047.03
2022-10-18T01:24:13.970Z,100035.53
2022-10-18T01:27:29.084Z,100034.69
2022-10-18T01:30:07.493Z,100034.69
2022-10-18T01:32:44.360Z,100031.97
2022-10-18T01:35:18.297Z,100035.75
2022-10-18T01:37:46.569Z,100025.44
2022-10-18T01:40:14.731Z,100023.38
2022-10-18T01:42:42.162Z,100017.13
2022-10-18T01:45:09.358Z,100021.34
2022-10-18T01:47:36.219Z,100010.66
2022-10-18T01:50:05.858Z,100017.94
2022-10-18T01:52:32.754Z,100022.38
2022-10-18T01:54:59.698Z,100016.06
2022-10-18T01:57:37.660Z,100003.50
2022-10-18T02:00:08.408Z,100014.41
2022-10-18T02:02:46.461Z,100014.59
2022-10-18T02:05:19.094Z,100008.34
2022-10-18T02:08:22.901Z,100015.63
2022-10-18T02:10:54.654Z,100002.06
2022-10-18T02:13:22.653Z,100004.56
2022-10-18T02:15:59.887Z,100009.78
2022-10-18T02:18:35.368Z,100014.75
2022-10-18T02:21:03.693Z,100003.25
2022-10-18T02:23:30.998Z,100005.75
2022-10-18T02:25:57.665Z,99997.44
2022-10-18T02:31:19.550Z,99979.44
2022-10-18T02:34:22.714Z,99984.03
2022-10-18T02:36:57.746Z,99984.41
2022-10-18T02:39:30.348Z,99986.28
2022-10-18T02:41:58.204Z,99990.03
2022-10-18T02:44:24.771Z,99987.31
2022-10-18T02:46:51.287Z,99986.25
2022-10-18T02:49:17.889Z,99990.63
2022-10-18T02:51:44.381Z,99996.41
2022-10-18T02:54:10.917Z,99995.75
2022-10-18T02:56:37.391Z,100005.13
2022-10-18T02:59:05.563Z,99993.63
2022-10-18T03:01:32.998Z,100000.09
2022-10-18T03:03:59.566Z,99998.63
2022-10-18T03:06:26.069Z,100000.66
2022-10-18T03:08:52.542Z,100000.66
2022-10-18T03:11:19.056Z,100003.56
2022-10-18T03:13:45.579Z,99993.31
2022-10-18T03:16:12.570Z,99990.41
2022-10-18T03:18:39.062Z,99997.13
2022-10-18T03:21:06.823Z,99993.97
2022-10-18T03:23:33.692Z,99975.50
2022-10-18T03:26:00.460Z,99994.38
2022-10-18T03:28:27.181Z,99997.72
2022-10-18T03:30:53.713Z,99995.00
2022-10-18T03:33:20.185Z,99998.75
2022-10-18T03:35:46.662Z,99995.41
2022-10-18T03:38:13.205Z,99996.41
2022-10-18T03:40:39.673Z,99992.00
2022-10-18T03:43:06.227Z,99993.53
2022-10-18T03:45:32.672Z,99990.97
2022-10-18T03:47:59.302Z,99994.09
2022-10-18T03:50:25.774Z,100002.22
2022-10-18T03:52:54.061Z,100006.16
2022-10-18T03:55:20.577Z,100008.25
2022-10-18T03:57:47.090Z,100002.81
2022-10-18T04:00:14.373Z,100003.00
2022-10-18T04:02:40.867Z,99999.44
2022-10-18T04:05:07.687Z,100000.66
2022-10-18T04:10:06.842Z,99997.31
2022-10-18T04:12:33.817Z,99996.47
2022-10-18T04:15:00.427Z,99996.28
2022-10-18T04:17:26.973Z,99998.16
2022-10-18T04:19:53.509Z,99998.34
2022-10-18T04:22:20.153Z,100001.91
2022-10-18T04:24:46.608Z,99998.56
2022-10-18T04:27:13.089Z,99998.56
2022-10-18T04:29:39.685Z,99997.06
2022-10-18T04:32:06.296Z,100003.13
2022-10-18T04:34:32.849Z,100000.63
2022-10-18T04:36:59.421Z,100005.84
2022-10-18T04:39:25.986Z,99997.84
2022-10-18T04:41:52.493Z,100002.84
2022-10-18T04:44:18.965Z,100001.19
2022-10-18T04:46:45.423Z,99997.84
2022-10-18T04:49:11.955Z,99988.41
2022-10-18T04:51:38.478Z,99998.22
2022-10-18T04:54:04.970Z,99994.69
2022-10-18T04:56:31.819Z,99990.09
2022-10-18T04:58:59.413Z,99990.72
2022-10-18T05:01:25.981Z,99990.72
2022-10-18T05:03:56.906Z,99993.44
2022-10-18T05:06:23.454Z,99992.13
2022-10-18T05:08:49.925Z,99994.19
2022-10-18T05:11:16.481Z,99991.69
2022-10-18T05:13:44.999Z,99990.84
2022-10-18T05:16:13.793Z,99992.06
2022-10-18T05:18:40.284Z,99991.44
2022-10-18T05:21:06.743Z,99987.22
2022-10-18T05:23:33.252Z,99987.81
2022-10-18T05:26:04.426Z,99990.97
2022-10-18T05:28:39.292Z,99985.72
2022-10-18T05:31:08.254Z,99991.34
2022-10-18T05:33:34.801Z,99986.78
2022-10-18T05:36:01.411Z,99984.25
2022-10-18T05:38:30.834Z,99984.44
2022-10-18T05:40:58.480Z,99984.66
2022-10-18T05:43:28.502Z,99976.88
2022-10-18T05:45:55.022Z,99984.25
2022-10-18T05:48:21.620Z,99989.69
2022-10-18T05:50:48.080Z,99983.78
2022-10-18T05:53:35.345Z,99985.00
2022-10-18T05:56:01.614Z,99995.00
2022-10-18T05:58:28.218Z,99984.38
2022-10-18T06:00:54.736Z,99966.53
2022-10-18T06:03:21.236Z,99992.09
2022-10-18T06:05:47.755Z,99988.00
2022-10-18T06:08:14.327Z,99993.88
2022-10-18T06:10:40.869Z,99993.03
2022-10-18T06:13:07.418Z,99989.69
2022-10-18T06:15:33.946Z,99991.53
2022-10-18T06:18:00.434Z,99991.16
2022-10-18T06:20:26.929Z,99997.22
2022-10-18T06:22:53.679Z,99991.03
2022-10-18T06:25:20.202Z,99996.25
2022-10-18T06:27:46.705Z,99997.50
2022-10-18T06:30:13.261Z,99992.72
2022-10-18T06:32:39.749Z,99990.44
2022-10-18T06:35:06.752Z,99997.84
2022-10-18T06:37:35.503Z,99999.91
2022-10-18T06:40:02.397Z,99989.69
2022-10-18T06:42:28.884Z,100002.03
2022-10-18T06:44:55.345Z,100005.38
2022-10-18T06:47:21.856Z,99992.66
2022-10-18T06:49:48.391Z,99998.91
2022-10-18T06:52:17.650Z,100000.88
2022-10-18T06:54:45.439Z,99998.78
2022-10-18T06:57:12.075Z,100015.69
2022-10-18T06:59:38.552Z,100010.56
2022-10-18T07:02:05.147Z,100012.03
2022-10-18T07:04:31.657Z,100003.69
2022-10-18T07:06:58.225Z,100007.09
2022-10-18T07:09:24.696Z,100009.19
2022-10-18T07:11:52.792Z,99994.16
2022-10-18T07:14:19.274Z,100015.06
2022-10-18T07:16:45.848Z,100011.38
2022-10-18T07:19:12.460Z,100014.94
2022-10-18T07:21:38.951Z,100006.59
2022-10-18T07:24:05.701Z,100013.81
2022-10-18T07:26:34.627Z,100009.00
2022-10-18T07:29:09.843Z,100012.56
2022-10-18T07:31:38.444Z,100007.41
2022-10-18T07:34:05.319Z,100008.03
2022-10-18T07:36:31.955Z,100013.91
2022-10-18T07:38:59.585Z,99998.72
2022-10-18T07:41:26.200Z,99995.41
2022-10-18T07:43:53.301Z,100004.66
2022-10-18T07:46:21.350Z,100005.69
2022-10-18T07:48:48.033Z,99999.00
2022-10-18T07:51:14.926Z,99998.63
2022-10-18T07:53:41.398Z,99988.38
2022-10-18T07:56:15.637Z,99999.91
2022-10-18T07:58:43.364Z,100000.13
2022-10-18T08:01:10.258Z,100003.13
2022-10-18T08:03:37.454Z,99992.06
2022-10-18T08:06:05.066Z,99994.56
2022-10-18T08:08:31.703Z,99988.34
2022-10-18T08:11:14.718Z,99990.03
2022-10-18T08:13:41.389Z,99988.81
2022-10-18T08:16:11.265Z,99994.47
2022-10-18T08:18:38.214Z,99989.47
2022-10-18T08:21:06.840Z,99991.81
2022-10-18T08:23:34.134Z,99990.72
2022-10-18T08:26:02.346Z,99982.34
2022-10-18T08:28:29.130Z,99989.31
2022-10-18T08:30:55.668Z,99987.69
2022-10-18T08:33:22.702Z,99978.91
2022-10-18T08:36:00.609Z,99992.31
2022-10-18T08:38:30.104Z,99985.66
2022-10-18T08:40:58.329Z,99983.16
2022-10-18T08:43:38.854Z,99988.22
2022-10-18T08:46:05.369Z,99984.47
2022-10-18T08:48:44.219Z,99979.84
2022-10-18T08:51:28.298Z,99985.13
2022-10-18T08:54:03.060Z,99966.31
2022-10-18T08:56:29.497Z,99980.56
2022-10-18T08:58:56.000Z,99979.09
2022-10-18T09:02:03.078Z,99978.66
2022-10-18T09:05:08.459Z,99974.31
2022-10-18T09:07:43.851Z,99979.78
2022-10-18T09:10:33.374Z,99973.91
2022-10-18T09:13:24.526Z,99970.75
2022-10-18T09:15:58.946Z,99968.50
2022-10-18T09:18:44.155Z,99959.50
2022-10-18T09:21:45.883Z,99950.72
2022-10-18T09:24:31.949Z,99953.22
2022-10-18T09:27:04.997Z,99951.53
2022-10-18T09:29:45.003Z,99940.06
2022-10-18T09:32:26.541Z,99948.03
2022-10-18T09:34:56.014Z,99948.22
2022-10-18T09:37:24.254Z,99943.00
2022-10-18T09:39:52.083Z,99942.16
2022-10-18T09:42:28.693Z,99946.97
2022-10-18T09:45:03.228Z,99943.81
2022-10-18T09:47:36.265Z,99940.69
2022-10-18T09:50:14.924Z,99939.19
2022-10-18T09:52:46.127Z,99943.59
2022-10-18T09:55:19.722Z,99937.53
2022-10-18T09:57:50.655Z,99945.06
2022-10-18T10:00:23.029Z,99937.31
2022-10-18T10:02:49.577Z,99929.53
2022-10-18T10:05:16.191Z,99923.47
2022-10-18T10:07:44.871Z,99923.88
2022-10-18T10:10:20.667Z,99921.34
2022-10-18T10:12:47.954Z,99917.59
2022-10-18T10:15:29.559Z,99908.97
2022-10-18T10:18:05.600Z,99907.91
2022-10-18T10:20:52.789Z,99912.69
2022-10-18T10:23:22.387Z,99910.00
2022-10-18T10:25:57.186Z,99907.44
2022-10-18T10:28:24.246Z,99906.19
2022-10-18T10:30:50.820Z,99903.03
2022-10-18T10:33:38.996Z,99896.28
2022-10-18T10:36:16.657Z,99897.75
2022-10-18T10:38:43.397Z,99898.38
2022-10-18T10:41:21.179Z,99894.78
2022-10-18T10:43:48.231Z,99889.28
2022-10-18T10:46:19.394Z,99888.00
2022-10-18T10:48:47.865Z,99872.69
2022-10-18T10:51:17.385Z,99884.56
2022-10-18T10:53:51.305Z,99890.00
2022-10-18T10:56:32.457Z,99878.50
2022-10-18T10:59:15.393Z,99875.47
2022-10-18T11:01:41.987Z,99880.06
2022-10-18T11:04:26.528Z,99873.09
2022-10-18T11:07:20.954Z,99864.88
2022-10-18T11:09:58.293Z,99854.56
2022-10-18T11:12:29.651Z,99856.47
2022-10-18T11:15:03.011Z,99843.03
2022-10-18T11:20:50.586Z,99827.34
2022-10-18T11:23:18.350Z,99826.41
2022-10-18T11:26:21.030Z,99813.31
2022-10-18T11:29:19.238Z,99818.13
2022-10-18T11:32:01.197Z,99810.59
2022-10-18T11:35:08.138Z,99805.44
2022-10-18T11:37:38.695Z,99790.06
2022-10-18T11:40:40.612Z,99777.59
2022-10-18T11:43:07.078Z,99783.41
2022-10-18T11:45:57.778Z,99792.16
2022-10-18T11:48:56.861Z,99784.47
2022-10-18T11:51:38.752Z,99773.59
2022-10-18T11:54:35.055Z,99767.31
2022-10-18T11:57:19.889Z,99760.47
2022-10-18T12:00:07.221Z,99756.47
2022-10-18T12:02:49.008Z,99752.31
2022-10-18T12:05:23.738Z,99748.16
2022-10-18T12:08:09.149Z,99744.97
2022-10-18T12:10:59.958Z,99739.94
2022-10-18T12:13:53.067Z,99738.16
2022-10-18T12:16:38.879Z,99732.56
2022-10-18T12:19:22.004Z,99726.28
2022-10-18T12:21:52.276Z,99719.66
2022-10-18T12:24:22.080Z,99718.44
2022-10-18T12:26:51.392Z,99712.59
2022-10-18T12:29:30.466Z,99713.03
2022-10-18T12:32:08.587Z,99707.13
2022-10-18T12:34:51.573Z,99700.50
2022-10-18T12:37:31.716Z,99699.84
2022-10-18T12:40:13.486Z,99696.00
2022-10-18T12:42:47.087Z,99690.84
2022-10-18T12:45:13.500Z,99685.06
2022-10-18T12:47:40.365Z,99685.13
2022-10-18T12:50:23.185Z,99683.34
2022-10-18T12:53:03.609Z,99683.06
2022-10-18T12:55:32.721Z,99661.63
2022-10-18T12:57:59.276Z,99661.34
2022-10-18T13:00:31.779Z,99658.13
2022-10-18T13:03:11.445Z,99664.91
2022-10-18T13:05:55.607Z,99655.75
2022-10-18T13:08:33.895Z,99643.22
2022-10-18T13:11:12.486Z,99644.78
2022-10-18T13:13:46.493Z,99647.09
2022-10-18T13:16:27.035Z,99636.47
2022-10-18T13:18:57.112Z,99642.44
2022-10-18T13:21:32.296Z,99632.13
2022-10-18T13:24:01.657Z,99622.94
2022-10-18T13:26:44.696Z,99626.03
2022-10-18T15:56:44.949Z,99534.34
2022-10-18T15:59:21.758Z,99533.19
2022-10-18T16:01:48.394Z,99520.69
2022-10-18T16:04:25.518Z,99528.66
2022-10-18T16:06:52.790Z,99525.47
2022-10-18T16:09:20.706Z,99525.09
2022-10-18T16:11:47.330Z,99528.47
2022-10-18T16:14:13.894Z,99523.06
2022-10-18T16:16:40.413Z,99525.09
2022-10-18T16:19:07.959Z,99531.81
2022-10-18T16:21:37.514Z,99537.25
2022-10-18T16:24:04.777Z,99533.31
2022-10-18T16:26:31.787Z,99533.75
2022-10-18T16:28:58.920Z,99534.97
2022-10-18T16:31:27.668Z,99534.41
2022-10-18T16:33:55.239Z,99536.00
2022-10-18T16:36:27.331Z,99531.09
2022-10-18T16:38:55.017Z,99536.66
2022-10-18T16:41:21.653Z,99538.97
2022-10-18T16:43:49.650Z,99536.28
2022-10-18T16:46:21.274Z,99541.03
2022-10-18T16:48:49.091Z,99534.25
2022-10-18T16:51:16.094Z,99542.38
2022-10-18T16:53:43.082Z,99538.88
2022-10-18T16:56:21.399Z,99545.75
2022-10-18T16:58:48.598Z,99538.69
2022-10-18T17:01:17.216Z,99545.09
2022-10-18T17:03:44.387Z,99544.59
2022-10-18T17:06:31.033Z,99540.00
2022-10-18T17:08:58.014Z,99547.97
2022-10-18T17:11:26.566Z,99550.81
2022-10-18T17:13:53.490Z,99548.50
2022-10-18T17:19:01.414Z,99554.72
2022-10-18T17:21:28.968Z,99561.63
2022-10-18T17:23:55.545Z,99556.09
2022-10-18T17:26:28.773Z,99556.34
2022-10-18T17:28:58.465Z,99556.75
2022-10-18T17:31:25.089Z,99552.03
2022-10-18T17:33:54.397Z,99561.16
2022-10-18T17:36:21.814Z,99556.59
2022-10-18T17:38:54.925Z,99559.91
2022-10-18T17:41:21.527Z,99560.44
2022-10-18T17:43:48.549Z,99558.69
2022-10-18T17:46:16.279Z,99551.88
2022-10-18T17:48:42.830Z,99557.88
2022-10-18T17:51:10.998Z,99562.47
2022-10-18T17:53:37.533Z,99561.44
2022-10-18T17:56:04.813Z,99561.22
2022-10-18T17:58:31.840Z,99541.69
2022-10-18T18:01:07.609Z,99571.41
2022-10-18T18:03:34.180Z,99578.50
2022-10-18T18:06:00.742Z,99576.16
2022-10-18T18:08:27.308Z,99575.44
2022-10-18T18:10:55.307Z,99582.94
2022-10-18T18:13:21.825Z,99583.34
2022-10-18T18:15:48.365Z,99560.19
2022-10-18T18:18:14.842Z,99582.28
2022-10-18T18:20:41.385Z,99589.78
2022-10-18T18:23:07.866Z,99590.88
2022-10-18T18:25:34.441Z,99591.22
2022-10-18T18:28:05.259Z,99566.84
2022-10-18T18:30:34.018Z,99584.31
2022-10-18T18:33:00.518Z,99587.50
2022-10-18T18:35:27.018Z,99591.88
2022-10-18T18:37:53.545Z,99593.59
2022-10-18T18:40:20.595Z,99590.97
2022-10-18T18:43:01.624Z,99589.53
2022-10-18T18:45:33.562Z,99595.34
2022-10-18T18:48:00.049Z,99597.59
2022-10-18T18:50:26.575Z,99591.91
2022-10-18T18:52:53.097Z,99598.69
2022-10-18T18:55:19.614Z,99592.97
2022-10-18T18:57:46.092Z,99598.19
2022-10-18T19:00:13.450Z,99584.44
2022-10-18T19:02:39.937Z,99589.50
2022-10-18T19:05:06.706Z,99587.03
2022-10-18T19:07:35.325Z,99594.97
2022-10-18T19:10:02.134Z,99594.13
2022-10-18T19:12:28.613Z,99587.13
2022-10-18T19:14:55.145Z,99581.44
2022-10-18T19:17:22.465Z,99591.41
2022-10-18T19:19:48.998Z,99585.69
2022-10-18T19:22:15.498Z,99590.84
2022-10-18T19:24:42.015Z,99590.50
2022-10-18T19:27:12.231Z,99590.50
2022-10-18T19:29:40.422Z,99593.41
2022-10-18T19:32:11.848Z,99587.69
2022-10-18T19:34:39.107Z,99584.63
2022-10-18T19:37:05.594Z,99585.22
2022-10-18T19:39:34.410Z,99589.75
2022-10-18T19:42:04.320Z,99585.59
2022-10-18T19:44:32.518Z,99587.81
2022-10-18T19:46:59.190Z,99585.69
2022-10-18T19:49:26.170Z,99588.91
2022-10-18T19:51:52.777Z,99585.56
2022-10-18T19:54:19.385Z,99598.22
2022-10-18T19:56:45.945Z,99587.28
2022-10-18T19:59:13.642Z,99588.19
2022-10-18T20:01:40.282Z,99590.00
2022-10-18T20:04:08.308Z,99595.69
2022-10-18T20:06:35.573Z,99600.28
2022-10-18T20:09:02.349Z,99593.28
2022-10-18T20:11:29.930Z,99603.28
2022-10-18T20:13:56.922Z,99598.75
2022-10-18T20:16:28.354Z,99601.53
2022-10-18T20:18:59.712Z,99603.69
2022-10-18T20:21:26.985Z,99600.19
2022-10-18T20:23:53.754Z,99601.50
2022-10-18T20:26:20.972Z,99606.72
2022-10-18T20:28:49.040Z,99592.94
2022-10-18T20:31:19.234Z,99606.91
2022-10-18T20:33:47.074Z,99607.38
2022-10-18T20:36:17.976Z,99607.16
2022-10-18T20:38:46.594Z,99606.19
2022-10-18T20:41:18.674Z,99607.63
2022-10-18T20:43:49.851Z,99616.69
2022-10-18T20:46:16.333Z,99611.00
2022-10-18T20:48:42.834Z,99612.91
2022-10-18T20:51:12.599Z,99620.72
2022-10-18T20:53:39.732Z,99625.78
2022-10-18T20:56:08.651Z,99620.94
2022-10-18T20:58:35.774Z,99620.53
2022-10-18T21:01:09.836Z,99620.75
2022-10-18T21:03:38.161Z,99612.66
2022-10-18T21:06:11.996Z,99607.69
2022-10-18T21:08:38.871Z,99594.97
2022-10-18T21:11:05.786Z,99613.97
2022-10-18T21:13:32.837Z,99610.38
2022-10-18T21:16:00.094Z,99612.41
2022-10-18T21:18:28.650Z,99616.66
2022-10-18T21:20:55.216Z,99608.75
2022-10-18T21:23:22.335Z,99618.38
2022-10-18T21:25:49.515Z,99608.31
2022-10-18T21:28:16.845Z,99610.59
2022-10-18T21:30:43.451Z,99608.38
2022-10-18T21:33:10.970Z,99608.91
2022-10-18T21:35:38.053Z,99608.31
2022-10-18T21:38:05.172Z,99600.56
2022-10-18T21:40:32.376Z,99603.50
2022-10-18T21:42:58.894Z,99608.13
2022-10-18T21:45:25.376Z,99600.84
2022-10-18T21:47:51.852Z,99607.50
2022-10-18T21:50:18.349Z,99601.97
2022-10-18T21:52:44.869Z,99600.09
2022-10-18T21:55:11.965Z,99592.00
2022-10-18T21:57:38.467Z,99605.13
2022-10-18T22:00:06.040Z,99600.28
2022-10-18T22:02:33.597Z,99589.84
2022-10-18T22:05:00.363Z,99590.13
2022-10-18T22:07:26.907Z,99585.31
2022-10-18T22:09:53.403Z,99594.75
2022-10-18T22:12:19.910Z,99586.81
2022-10-18T22:14:46.499Z,99589.34
2022-10-18T22:17:12.985Z,99579.50
2022-10-18T22:19:39.652Z,99581.38
2022-10-18T22:22:06.130Z,99583.91
2022-10-18T22:24:32.662Z,99574.69
2022-10-18T22:26:59.214Z,99575.63
2022-10-18T22:29:25.684Z,99572.50
2022-10-18T22:31:53.773Z,99571.09
2022-10-18T22:34:23.039Z,99573.59
2022-10-18T22:36:49.563Z,99568.63
2022-10-18T22:39:16.803Z,99565.28
2022-10-18T22:41:43.521Z,99570.53
2022-10-18T22:44:14.566Z,99566.28
2022-10-18T22:46:41.845Z,99569.44
2022-10-18T22:49:08.626Z,99564.47
2022-10-18T22:54:06.570Z,99564.06
2022-10-18T22:56:33.077Z,99558.19
2022-10-18T22:58:59.702Z,99564.31
2022-10-18T23:01:26.253Z,99567.03
2022-10-18T23:03:57.578Z,99561.16
2022-10-18T23:06:27.808Z,99556.97
2022-10-18T23:08:56.633Z,99555.34
2022-10-18T23:11:24.892Z,99552.00
2022-10-18T23:13:51.584Z,99550.09
2022-10-18T23:16:18.765Z,99555.19
2022-10-18T23:18:52.243Z,99550.97
2022-10-18T23:21:19.773Z,99553.31
2022-10-18T23:23:46.705Z,99541.81
2022-10-18T23:26:15.222Z,99549.16
2022-10-18T23:28:44.102Z,99546.66
2022-10-18T23:31:12.061Z,99546.84
2022-10-18T23:33:39.290Z,99538.72
2022-10-18T23:36:07.000Z,99541.66
2022-10-18T23:38:34.452Z,99538.72
2022-10-18T23:41:00.929Z,99537.06
2022-10-18T23:43:27.555Z,99536.63
2022-10-18T23:45:54.063Z,99531.84
2022-10-18T23:48:20.558Z,99526.59
2022-10-18T23:50:47.079Z,99530.81
2022-10-18T23:53:13.611Z,99535.81
2022-10-18T23:55:40.232Z,99540.84
2022-10-18T23:58:06.706Z,99527.88
